Holcomb, Kansas
Current Conditions -  °F | °C
As of 8:24 PM on Saturday 22 Nov 2014 (Local Time) from KGCK Reporting Station
Broken Clouds Broken Clouds  
Wind Chill: 51°   Ceiling: 900
Heat Index: 51°   Visibility: 8mi
Dew Point: 48°   Wind: 23mph
Humidity: 89%   Direction: 170°S
Pressure: 29.56"   Gusts: 32mph
Location:  37.99°N, 100.99°W
Report Text: KGCK 230224Z 17020G28KT 8SM BKN009 11/09 A2956 RMK AO2 PK WND 17028/0218 T01060089
Loading
Personal Weather Stations






























Interactive Weather Map New forecast layout! Learn more

10-Day Weather Forecast

Advertisements
Track Severe Weather on mobile